createdAt,value
2023-01-06T00:01:12.395Z,20.40
2023-01-06T00:03:40.135Z,20.40
2023-01-06T00:06:08.466Z,20.40
2023-01-06T00:08:36.125Z,20.40
2023-01-06T00:11:07.392Z,20.40
2023-01-06T00:13:35.161Z,20.30
2023-01-06T00:16:06.755Z,20.30
2023-01-06T00:18:34.462Z,20.30
2023-01-06T00:21:02.726Z,20.30
2023-01-06T00:23:30.235Z,20.30
2023-01-06T00:26:01.498Z,20.30
2023-01-06T00:28:29.357Z,20.30
2023-01-06T00:30:57.527Z,20.30
2023-01-06T00:33:25.347Z,20.40
2023-01-06T00:35:53.767Z,20.40
2023-01-06T00:38:21.707Z,20.40
2023-01-06T00:40:50.128Z,20.40
2023-01-06T00:43:17.986Z,20.40
2023-01-06T00:45:45.525Z,20.50
2023-01-06T00:48:14.312Z,20.50
2023-01-06T00:50:45.437Z,20.50
2023-01-06T00:53:13.024Z,20.60
2023-01-06T00:55:41.734Z,20.60
2023-01-06T00:58:09.539Z,20.70
2023-01-06T01:00:37.405Z,20.70
2023-01-06T01:03:05.222Z,20.70
2023-01-06T01:05:33.590Z,20.70
2023-01-06T01:08:02.744Z,20.70
2023-01-06T01:10:30.920Z,20.80
2023-01-06T01:13:10.388Z,20.80
2023-01-06T01:15:38.359Z,20.80
2023-01-06T01:18:10.791Z,20.80
2023-01-06T01:20:39.040Z,20.80
2023-01-06T01:23:07.178Z,20.80
2023-01-06T01:25:35.364Z,20.90
2023-01-06T01:28:04.910Z,20.90
2023-01-06T01:30:33.889Z,20.90
2023-01-06T01:33:01.799Z,21.00
2023-01-06T01:36:22.397Z,21.00
2023-01-06T01:39:04.204Z,21.10
2023-01-06T01:41:32.614Z,21.20
2023-01-06T01:49:55.405Z,21.20
2023-01-06T01:52:23.818Z,21.20
2023-01-06T01:54:53.688Z,21.30
2023-01-06T01:57:30.590Z,21.30
2023-01-06T01:59:59.178Z,21.30
2023-01-06T02:02:27.941Z,21.40
2023-01-06T02:05:14.547Z,21.40
2023-01-06T02:07:42.207Z,21.50
2023-01-06T02:10:16.012Z,21.60
2023-01-06T02:12:45.394Z,21.70
2023-01-06T02:15:25.033Z,21.80
2023-01-06T02:17:55.565Z,21.90
2023-01-06T02:20:24.355Z,22.00
2023-01-06T02:23:10.497Z,22.10
2023-01-06T02:26:00.590Z,22.20
2023-01-06T02:28:35.024Z,22.40
2023-01-06T02:31:03.757Z,22.50
2023-01-06T02:33:39.485Z,22.50
2023-01-06T02:36:20.353Z,22.50
2023-01-06T02:38:48.771Z,22.60
2023-01-06T02:41:16.424Z,22.70
2023-01-06T02:44:20.924Z,22.70
2023-01-06T02:47:00.583Z,22.80
2023-01-06T02:49:37.939Z,22.90
2023-01-06T02:52:16.339Z,23.00
2023-01-06T02:54:50.273Z,23.10
2023-01-06T02:57:22.664Z,23.20
2023-01-06T02:59:57.235Z,23.30
2023-01-06T03:02:26.497Z,23.30
2023-01-06T03:04:55.150Z,23.40
2023-01-06T03:07:23.213Z,23.40
2023-01-06T03:09:53.267Z,23.50
2023-01-06T03:12:26.320Z,23.60
2023-01-06T03:14:55.599Z,23.70
2023-01-06T03:17:44.355Z,23.70
2023-01-06T03:20:13.332Z,23.80
2023-01-06T03:22:41.727Z,23.90
2023-01-06T03:25:12.706Z,24.00
2023-01-06T03:27:40.755Z,24.10
2023-01-06T03:30:12.675Z,24.20
2023-01-06T03:33:00.901Z,24.30
2023-01-06T03:35:47.154Z,24.30
2023-01-06T03:38:27.950Z,24.40
2023-01-06T03:41:05.315Z,24.50
2023-01-06T03:43:36.255Z,24.60
2023-01-06T03:46:06.940Z,24.70
2023-01-06T03:48:37.580Z,24.80
2023-01-06T03:51:10.150Z,24.80
2023-01-06T03:53:41.041Z,24.90
2023-01-06T03:56:25.658Z,24.90
2023-01-06T03:58:55.213Z,25.00
2023-01-06T04:01:27.109Z,25.00
2023-01-06T04:03:55.286Z,25.00
2023-01-06T04:06:23.700Z,25.20
2023-01-06T04:08:53.472Z,25.20
2023-01-06T04:11:41.561Z,25.30
2023-01-06T04:14:10.035Z,25.30
2023-01-06T04:16:38.380Z,25.40
2023-01-06T04:19:06.907Z,25.50
2023-01-06T04:21:35.396Z,25.50
2023-01-06T04:24:03.038Z,25.60
2023-01-06T04:26:31.757Z,25.70
2023-01-06T04:29:00.305Z,25.70
2023-01-06T04:31:28.034Z,25.80
2023-01-06T04:33:56.365Z,25.90
2023-01-06T04:36:24.006Z,25.90
2023-01-06T04:38:52.466Z,25.90
2023-01-06T04:41:21.096Z,26.00
2023-01-06T04:43:50.060Z,26.10
2023-01-06T04:46:18.481Z,26.10
2023-01-06T04:48:47.015Z,26.10
2023-01-06T04:51:15.224Z,26.10
2023-01-06T04:53:46.785Z,26.10
2023-01-06T04:56:14.595Z,26.20
2023-01-06T04:58:43.264Z,26.20
2023-01-06T05:01:12.683Z,26.20
2023-01-06T05:03:41.509Z,26.20
2023-01-06T05:06:10.641Z,26.20
2023-01-06T05:08:39.547Z,26.20
2023-01-06T05:11:09.444Z,26.20
2023-01-06T05:13:38.770Z,26.20
2023-01-06T05:16:07.876Z,26.20
2023-01-06T05:18:36.927Z,26.30
2023-01-06T05:21:04.645Z,26.30
2023-01-06T05:23:32.714Z,26.40
2023-01-06T05:26:01.746Z,26.40
2023-01-06T05:28:29.981Z,26.50
2023-01-06T05:31:05.199Z,26.50
2023-01-06T05:33:34.234Z,26.50
2023-01-06T05:36:07.303Z,26.50
2023-01-06T05:38:36.036Z,26.50
2023-01-06T05:41:05.265Z,26.60
2023-01-06T05:43:35.370Z,26.60
2023-01-06T05:46:33.454Z,26.60
2023-01-06T05:49:03.317Z,26.70
2023-01-06T05:51:31.052Z,26.70
2023-01-06T05:53:58.885Z,26.70
2023-01-06T05:56:28.023Z,26.60
2023-01-06T05:58:58.636Z,26.60
2023-01-06T06:01:29.352Z,26.60
2023-01-06T06:03:57.799Z,26.60
2023-01-06T06:06:26.704Z,26.60
2023-01-06T06:09:04.187Z,26.70
2023-01-06T06:11:31.864Z,26.80
2023-01-06T06:13:59.493Z,26.70
2023-01-06T06:16:29.087Z,26.70
2023-01-06T06:18:58.099Z,26.70
2023-01-06T06:21:26.889Z,26.80
2023-01-06T06:23:55.065Z,26.80
2023-01-06T06:26:23.280Z,26.70
2023-01-06T06:28:51.814Z,26.60
2023-01-06T06:31:24.355Z,26.60
2023-01-06T06:33:55.991Z,26.60
2023-01-06T06:36:24.255Z,26.60
2023-01-06T06:38:56.178Z,26.60
2023-01-06T06:41:27.339Z,26.60
2023-01-06T06:43:54.853Z,26.70
2023-01-06T06:46:22.648Z,26.60
2023-01-06T06:48:53.228Z,26.60
2023-01-06T06:51:22.399Z,26.60
2023-01-06T06:53:51.179Z,26.70
2023-01-06T06:56:20.511Z,26.70
2023-01-06T06:58:49.325Z,26.70
2023-01-06T07:01:19.173Z,26.70
2023-01-06T07:03:47.824Z,26.70
2023-01-06T07:06:19.181Z,26.70
2023-01-06T07:08:48.114Z,26.70
2023-01-06T07:11:15.741Z,26.60
2023-01-06T07:13:43.374Z,26.60
2023-01-06T07:16:13.588Z,26.50
2023-01-06T07:18:41.713Z,26.50
2023-01-06T07:21:11.521Z,26.50
2023-01-06T07:23:39.151Z,26.50
2023-01-06T07:26:07.082Z,26.50
2023-01-06T07:28:35.515Z,26.50
2023-01-06T07:31:06.098Z,26.60
2023-01-06T07:33:33.985Z,26.60
2023-01-06T07:36:02.215Z,26.50
2023-01-06T07:38:30.888Z,26.50
2023-01-06T07:41:02.231Z,26.60
2023-01-06T07:43:32.220Z,26.60
2023-01-06T07:46:02.405Z,26.60
2023-01-06T07:48:30.412Z,26.60
2023-01-06T07:50:59.730Z,26.60
2023-01-06T07:53:27.470Z,26.60
2023-01-06T07:55:55.838Z,26.60
2023-01-06T07:58:27.779Z,26.60
2023-01-06T08:01:02.165Z,26.60
2023-01-06T08:03:30.813Z,26.60
2023-01-06T08:05:58.678Z,26.60
2023-01-06T08:08:27.991Z,26.60
2023-01-06T08:11:00.340Z,26.50
2023-01-06T08:13:29.335Z,26.50
2023-01-06T08:16:00.961Z,26.50
2023-01-06T08:18:36.521Z,26.50
2023-01-06T08:21:11.417Z,26.50
2023-01-06T08:23:39.584Z,26.40
2023-01-06T08:26:12.012Z,26.40
2023-01-06T08:28:40.469Z,26.40
2023-01-06T08:31:13.663Z,26.40
2023-01-06T08:33:41.997Z,26.40
2023-01-06T08:36:10.672Z,26.30
2023-01-06T08:38:38.833Z,26.30
2023-01-06T08:41:07.069Z,26.20
2023-01-06T08:43:35.554Z,26.30
2023-01-06T08:46:04.292Z,26.20
2023-01-06T08:48:37.091Z,26.20
2023-01-06T08:51:15.025Z,26.20
2023-01-06T08:53:44.181Z,26.20
2023-01-06T08:56:17.316Z,26.20
2023-01-06T08:58:48.631Z,26.20
2023-01-06T09:01:17.781Z,26.20
2023-01-06T09:03:46.002Z,26.10
2023-01-06T09:06:14.122Z,26.10
2023-01-06T09:08:42.024Z,26.00
2023-01-06T09:11:24.163Z,26.00
2023-01-06T09:13:54.896Z,26.00
2023-01-06T09:16:23.939Z,26.00
2023-01-06T09:18:53.646Z,25.90
2023-01-06T09:21:22.419Z,25.90
2023-01-06T09:23:50.387Z,25.90
2023-01-06T09:26:19.164Z,25.90
2023-01-06T09:28:47.831Z,25.90
2023-01-06T09:31:15.619Z,25.90
2023-01-06T09:33:43.299Z,25.90
2023-01-06T09:36:11.049Z,25.90
2023-01-06T09:38:39.389Z,25.80
2023-01-06T09:41:25.708Z,25.80
2023-01-06T09:44:05.348Z,25.80
2023-01-06T09:46:35.029Z,25.80
2023-01-06T09:49:22.765Z,25.80
2023-01-06T09:51:50.575Z,25.80
2023-01-06T09:54:26.644Z,25.80
2023-01-06T09:57:00.195Z,25.70
2023-01-06T09:59:48.098Z,25.70
2023-01-06T10:02:21.599Z,25.80
2023-01-06T10:04:49.585Z,25.70
2023-01-06T10:07:18.110Z,25.70
2023-01-06T10:09:54.665Z,25.70
2023-01-06T10:12:28.572Z,25.60
2023-01-06T10:15:14.230Z,25.60
2023-01-06T10:17:44.766Z,25.60
2023-01-06T10:20:18.187Z,25.60
2023-01-06T10:22:45.928Z,25.60
2023-01-06T10:25:13.527Z,25.60
2023-01-06T10:27:42.086Z,25.50
2023-01-06T10:30:18.670Z,25.50
2023-01-06T10:32:47.563Z,25.50
2023-01-06T10:35:18.217Z,25.50
2023-01-06T10:37:49.229Z,25.50
2023-01-06T10:40:16.773Z,25.50
2023-01-06T10:42:56.597Z,25.40
2023-01-06T10:45:29.294Z,25.40
2023-01-06T10:47:57.042Z,25.40
2023-01-06T10:50:25.051Z,25.40
2023-01-06T10:52:53.018Z,25.30
2023-01-06T10:55:26.442Z,25.30
2023-01-06T10:57:57.068Z,25.30
2023-01-06T11:00:26.151Z,25.30
2023-01-06T11:03:09.280Z,25.30
2023-01-06T11:05:42.306Z,25.20
2023-01-06T11:08:13.443Z,25.20
2023-01-06T11:10:44.895Z,25.20
2023-01-06T11:13:21.464Z,25.20
2023-01-06T11:15:49.594Z,25.20
2023-01-06T11:18:38.310Z,25.10
2023-01-06T11:21:13.813Z,25.10
2023-01-06T11:23:42.489Z,25.10
2023-01-06T11:26:13.059Z,25.10
2023-01-06T11:28:41.279Z,25.00
2023-01-06T11:31:16.944Z,25.00
2023-01-06T11:34:02.882Z,25.00
2023-01-06T11:36:32.075Z,25.00
2023-01-06T11:39:01.340Z,24.90
2023-01-06T11:41:31.673Z,24.90
2023-01-06T11:44:22.356Z,24.80
2023-01-06T11:46:52.157Z,24.80
2023-01-06T11:49:26.271Z,24.80
2023-01-06T11:52:00.387Z,24.80
2023-01-06T11:54:39.058Z,24.70
2023-01-06T11:57:17.199Z,24.70
2023-01-06T11:59:49.675Z,24.70
2023-01-06T12:02:29.495Z,24.70
2023-01-06T12:04:57.445Z,24.60
2023-01-06T12:07:31.106Z,24.70
2023-01-06T12:10:05.983Z,24.60
2023-01-06T12:12:33.783Z,24.60
2023-01-06T12:15:02.735Z,24.60
2023-01-06T12:17:54.102Z,24.60
2023-01-06T12:20:25.761Z,24.60
2023-01-06T12:22:53.242Z,24.50
2023-01-06T12:25:20.810Z,24.50
2023-01-06T12:27:54.112Z,24.50
2023-01-06T12:30:33.262Z,24.50
2023-01-06T12:33:17.359Z,24.40
2023-01-06T12:35:45.687Z,24.40
2023-01-06T12:38:39.124Z,24.30
2023-01-06T12:41:29.502Z,24.30
2023-01-06T12:44:17.474Z,24.30
2023-01-06T12:47:03.324Z,24.30
2023-01-06T12:49:40.528Z,24.30
2023-01-06T12:52:15.864Z,24.30
2023-01-06T12:54:47.735Z,24.30
2023-01-06T12:57:21.271Z,24.30
2023-01-06T13:00:12.618Z,24.30
2023-01-06T13:02:43.141Z,24.20
2023-01-06T13:05:16.880Z,24.20
2023-01-06T13:08:02.811Z,24.20
2023-01-06T13:10:59.538Z,24.20
2023-01-06T13:13:32.827Z,24.20
2023-01-06T13:16:06.804Z,24.10
2023-01-06T13:18:48.027Z,24.10
2023-01-06T13:21:17.594Z,24.10
2023-01-06T13:23:57.448Z,24.10
2023-01-06T13:26:43.055Z,24.10
2023-01-06T13:29:13.707Z,24.10
2023-01-06T13:31:50.349Z,24.00
2023-01-06T13:34:33.237Z,24.00
2023-01-06T13:37:07.045Z,24.00
2023-01-06T13:39:39.505Z,24.00
2023-01-06T13:42:08.066Z,24.00
2023-01-06T13:44:38.525Z,24.00
2023-01-06T13:47:11.999Z,24.00
2023-01-06T13:49:40.696Z,24.00
2023-01-06T13:52:14.193Z,23.90
2023-01-06T13:54:41.674Z,23.90
2023-01-06T13:57:30.068Z,23.90
2023-01-06T14:00:06.435Z,23.90
2023-01-06T14:02:38.736Z,23.90
2023-01-06T14:05:09.061Z,23.90
2023-01-06T14:07:40.593Z,23.90
2023-01-06T14:10:27.880Z,23.80
2023-01-06T14:12:56.019Z,23.80
2023-01-06T14:15:27.064Z,23.80
2023-01-06T14:17:54.702Z,23.80
2023-01-06T14:20:26.665Z,23.80
2023-01-06T14:23:01.203Z,23.70
2023-01-06T14:25:30.151Z,23.70
2023-01-06T14:28:00.439Z,23.70
2023-01-06T14:30:35.364Z,23.60
2023-01-06T14:33:06.046Z,23.60
2023-01-06T14:35:44.452Z,23.60
2023-01-06T14:38:32.892Z,23.60
2023-01-06T14:41:03.329Z,23.50
2023-01-06T14:43:30.872Z,23.50
2023-01-06T14:46:02.995Z,23.50
2023-01-06T14:48:40.053Z,23.50
2023-01-06T14:51:07.671Z,23.40
2023-01-06T14:53:43.077Z,23.30
2023-01-06T14:56:18.461Z,23.30
2023-01-06T14:58:46.171Z,23.30
2023-01-06T15:01:24.313Z,23.20
2023-01-06T15:03:55.672Z,23.20
2023-01-06T15:06:25.403Z,23.20
2023-01-06T15:08:53.012Z,23.20
2023-01-06T15:11:23.794Z,23.10
2023-01-06T15:13:51.570Z,23.10
2023-01-06T15:16:38.569Z,23.10
2023-01-06T15:19:12.745Z,23.10
2023-01-06T15:21:41.985Z,23.10
2023-01-06T15:24:26.356Z,23.10
2023-01-06T15:26:55.364Z,23.10
2023-01-06T15:29:26.146Z,23.00
2023-01-06T15:31:54.340Z,23.00
2023-01-06T15:34:24.136Z,23.00
2023-01-06T15:36:55.491Z,23.00
2023-01-06T15:39:26.518Z,23.00
2023-01-06T15:41:54.458Z,22.90
2023-01-06T15:44:28.419Z,22.90
2023-01-06T15:47:19.253Z,22.90
2023-01-06T15:49:54.577Z,22.80
2023-01-06T15:52:33.327Z,22.80
2023-01-06T15:55:02.294Z,22.70
2023-01-06T15:57:32.526Z,22.70
2023-01-06T16:00:07.780Z,22.70
2023-01-06T16:02:37.115Z,22.70
2023-01-06T16:05:04.783Z,22.70
2023-01-06T16:07:35.496Z,22.60
2023-01-06T16:10:03.469Z,22.70
2023-01-06T16:12:30.965Z,22.70
2023-01-06T16:14:58.491Z,22.70
2023-01-06T16:17:31.671Z,22.60
2023-01-06T16:20:01.146Z,22.60
2023-01-06T16:22:32.692Z,22.50
2023-01-06T16:25:02.168Z,22.50
2023-01-06T16:27:29.966Z,22.50
2023-01-06T16:30:19.139Z,22.40
2023-01-06T16:32:47.261Z,22.50
2023-01-06T16:35:16.474Z,22.50
2023-01-06T16:37:44.608Z,22.40
2023-01-06T16:40:15.639Z,22.40
2023-01-06T16:42:43.541Z,22.40
2023-01-06T16:45:11.245Z,22.30
2023-01-06T16:47:39.582Z,22.30
2023-01-06T16:50:17.636Z,22.30
2023-01-06T16:52:46.025Z,22.30
2023-01-06T16:55:17.920Z,22.20
2023-01-06T16:57:50.071Z,22.20
2023-01-06T17:00:19.672Z,22.10
2023-01-06T17:02:47.892Z,22.10
2023-01-06T17:05:18.145Z,22.00
2023-01-06T17:07:45.726Z,22.00
2023-01-06T17:10:18.916Z,22.00
2023-01-06T17:13:25.494Z,22.00
2023-01-06T17:15:59.501Z,21.90
2023-01-06T17:18:31.418Z,21.90
2023-01-06T17:21:02.110Z,21.90
2023-01-06T17:23:34.906Z,21.90
2023-01-06T17:26:02.997Z,21.90
2023-01-06T17:28:31.390Z,21.90
2023-01-06T17:31:00.812Z,21.90
2023-01-06T17:33:29.964Z,21.90
2023-01-06T17:35:57.692Z,21.90
2023-01-06T17:38:26.685Z,21.90
2023-01-06T17:40:55.180Z,21.80
2023-01-06T17:43:24.873Z,21.80
2023-01-06T17:45:54.604Z,21.80
2023-01-06T17:48:23.118Z,21.80
2023-01-06T17:50:55.143Z,21.80
2023-01-06T17:53:43.773Z,21.70
2023-01-06T17:56:11.917Z,21.70
2023-01-06T17:58:46.041Z,21.70
2023-01-06T18:01:30.390Z,21.70
2023-01-06T18:04:00.057Z,21.70
2023-01-06T18:06:37.648Z,21.60
2023-01-06T18:09:05.109Z,21.60
2023-01-06T18:11:33.929Z,21.60
2023-01-06T18:14:13.537Z,21.60
2023-01-06T18:16:43.961Z,21.60
2023-01-06T18:19:22.912Z,21.70
2023-01-06T18:21:50.497Z,21.60
2023-01-06T18:24:22.437Z,21.60
2023-01-06T18:26:52.693Z,21.60
2023-01-06T18:29:23.015Z,21.60
2023-01-06T18:31:51.346Z,21.50
2023-01-06T18:34:31.676Z,21.50
2023-01-06T18:37:00.254Z,21.40
2023-01-06T18:39:29.263Z,21.50
2023-01-06T18:42:08.092Z,21.50
2023-01-06T18:44:35.653Z,21.50
2023-01-06T18:47:03.161Z,21.50
2023-01-06T18:49:35.423Z,21.50
2023-01-06T18:52:07.861Z,21.40
2023-01-06T18:54:35.406Z,21.40
2023-01-06T18:57:07.843Z,21.40
2023-01-06T18:59:35.426Z,21.30
2023-01-06T19:02:03.921Z,21.30
2023-01-06T19:04:33.208Z,21.30
2023-01-06T19:07:11.837Z,21.30
2023-01-06T19:09:47.233Z,21.20
2023-01-06T19:12:33.780Z,21.20
2023-01-06T19:15:22.553Z,21.20
2023-01-06T19:17:51.667Z,21.20
2023-01-06T19:20:22.992Z,21.10
2023-01-06T19:22:50.657Z,21.10
2023-01-06T19:25:27.457Z,21.10
2023-01-06T19:28:00.495Z,21.00
2023-01-06T19:30:34.279Z,21.00
2023-01-06T19:33:15.362Z,21.00
2023-01-06T19:35:43.061Z,21.00
2023-01-06T19:38:20.256Z,21.00
2023-01-06T19:40:47.900Z,21.00
2023-01-06T19:43:16.569Z,20.90
2023-01-06T19:45:45.291Z,20.90
2023-01-06T19:48:22.153Z,20.90
2023-01-06T19:50:49.897Z,20.90
2023-01-06T19:53:32.527Z,20.90
2023-01-06T19:56:01.989Z,20.90
2023-01-06T19:58:34.491Z,20.90
2023-01-06T20:01:02.011Z,20.90
2023-01-06T20:03:31.469Z,20.90
2023-01-06T20:05:59.158Z,20.90
2023-01-06T20:08:26.774Z,20.90
2023-01-06T20:10:55.590Z,20.90
2023-01-06T20:13:23.483Z,20.90
2023-01-06T20:15:50.986Z,20.90
2023-01-06T20:18:18.533Z,21.00
2023-01-06T20:20:46.071Z,21.00
2023-01-06T20:23:13.580Z,21.00
2023-01-06T20:25:41.114Z,21.00
2023-01-06T20:28:08.613Z,21.00
2023-01-06T20:30:36.144Z,21.00
2023-01-06T20:33:03.741Z,21.00
2023-01-06T20:35:31.247Z,21.00
2023-01-06T20:37:58.852Z,21.00
2023-01-06T20:40:26.383Z,21.00
2023-01-06T20:42:54.028Z,21.00
2023-01-06T20:45:21.613Z,20.90
2023-01-06T20:47:49.172Z,20.90
2023-01-06T20:50:16.801Z,20.90
2023-01-06T20:52:48.206Z,20.80
2023-01-06T20:55:17.276Z,20.80
2023-01-06T20:57:44.808Z,20.70
2023-01-06T21:00:12.785Z,20.70
2023-01-06T21:02:40.549Z,20.70
2023-01-06T21:05:09.294Z,20.70
2023-01-06T21:07:36.913Z,20.70
2023-01-06T21:10:04.632Z,20.70
2023-01-06T21:12:32.264Z,20.70
2023-01-06T21:15:00.555Z,20.70
2023-01-06T21:17:28.209Z,20.70
2023-01-06T21:19:55.776Z,20.60
2023-01-06T21:22:23.333Z,20.60
2023-01-06T21:24:50.929Z,20.60
2023-01-06T21:27:18.456Z,20.60
2023-01-06T21:29:46.090Z,20.60
2023-01-06T21:32:13.695Z,20.70
2023-01-06T21:34:41.245Z,20.70
2023-01-06T21:37:08.791Z,20.70
2023-01-06T21:39:36.322Z,20.70
2023-01-06T21:42:22.058Z,20.70
2023-01-06T21:44:49.620Z,20.70
2023-01-06T21:47:17.134Z,20.70
2023-01-06T21:49:46.989Z,20.70
2023-01-06T21:52:15.877Z,20.70
2023-01-06T21:54:44.370Z,20.70
2023-01-06T21:57:12.104Z,20.70
2023-01-06T21:59:40.199Z,20.70
2023-01-06T22:02:08.826Z,20.70
2023-01-06T22:04:39.605Z,20.70
2023-01-06T22:07:09.463Z,20.70
2023-01-06T22:09:38.697Z,20.70
2023-01-06T22:12:07.153Z,20.70
2023-01-06T22:14:34.820Z,20.60
2023-01-06T22:17:02.559Z,20.60
2023-01-06T22:19:30.204Z,20.60
2023-01-06T22:21:59.274Z,20.60
2023-01-06T22:24:27.139Z,20.60
2023-01-06T22:26:54.635Z,20.60
2023-01-06T22:29:22.132Z,20.60
2023-01-06T22:31:49.696Z,20.50
2023-01-06T22:34:17.461Z,20.50
2023-01-06T22:36:45.051Z,20.50
2023-01-06T22:39:12.584Z,20.50
2023-01-06T22:41:40.123Z,20.50
2023-01-06T22:44:07.669Z,20.50
2023-01-06T22:46:36.027Z,20.50
2023-01-06T22:49:03.636Z,20.50
2023-01-06T22:51:32.565Z,20.50
2023-01-06T22:54:00.186Z,20.50
2023-01-06T22:56:27.840Z,20.50
2023-01-06T22:58:55.329Z,20.40
2023-01-06T23:01:23.168Z,20.40
2023-01-06T23:03:50.782Z,20.40
2023-01-06T23:06:18.397Z,20.40
2023-01-06T23:08:58.938Z,20.40
2023-01-06T23:11:28.402Z,20.40
2023-01-06T23:13:57.413Z,20.30
2023-01-06T23:16:27.388Z,20.30
2023-01-06T23:18:55.174Z,20.20
2023-01-06T23:21:23.764Z,20.20
2023-01-06T23:23:51.957Z,20.20
2023-01-06T23:26:39.582Z,20.10
2023-01-06T23:29:07.298Z,20.10
2023-01-06T23:31:38.123Z,20.10
2023-01-06T23:34:07.240Z,20.00
2023-01-06T23:36:34.951Z,20.00
2023-01-06T23:39:03.265Z,19.90
2023-01-06T23:41:31.866Z,19.90
2023-01-06T23:43:59.842Z,19.90
2023-01-06T23:46:32.151Z,19.90
2023-01-06T23:48:59.736Z,19.90
2023-01-06T23:51:30.848Z,19.80
2023-01-06T23:54:01.596Z,19.80
2023-01-06T23:56:30.858Z,19.80
2023-01-06T23:58:59.768Z,19.80
